sensor_id;sensor_type;location;lat;lon;timestamp;P1;durP1;ratioP1;P2;durP2;ratioP2
80320;SDS011;69633;47.066;15.450;2023-05-16T00:00:02;4.80;;;1.50;;
80320;SDS011;69633;47.066;15.450;2023-05-16T00:02:32;3.50;;;1.55;;
80320;SDS011;69633;47.066;15.450;2023-05-16T00:04:58;5.22;;;1.70;;
80320;SDS011;69633;47.066;15.450;2023-05-16T00:07:25;4.07;;;1.88;;
80320;SDS011;69633;47.066;15.450;2023-05-16T00:09:52;4.00;;;2.15;;
80320;SDS011;69633;47.066;15.450;2023-05-16T00:12:18;3.38;;;1.73;;
80320;SDS011;69633;47.066;15.450;2023-05-16T00:14:48;3.83;;;1.85;;
80320;SDS011;69633;47.066;15.450;2023-05-16T00:17:15;3.50;;;1.77;;
80320;SDS011;69633;47.066;15.450;2023-05-16T00:19:42;3.65;;;1.65;;
80320;SDS011;69633;47.066;15.450;2023-05-16T00:22:11;3.30;;;1.80;;
80320;SDS011;69633;47.066;15.450;2023-05-16T00:24:38;4.55;;;1.80;;
80320;SDS011;69633;47.066;15.450;2023-05-16T00:27:03;2.88;;;1.65;;
80320;SDS011;69633;47.066;15.450;2023-05-16T00:29:37;4.70;;;1.42;;
80320;SDS011;69633;47.066;15.450;2023-05-16T00:32:05;3.22;;;1.73;;
80320;SDS011;69633;47.066;15.450;2023-05-16T00:34:34;5.93;;;1.73;;
80320;SDS011;69633;47.066;15.450;2023-05-16T00:37:02;4.00;;;1.98;;
80320;SDS011;69633;47.066;15.450;2023-05-16T00:39:28;4.70;;;1.75;;
80320;SDS011;69633;47.066;15.450;2023-05-16T00:41:56;2.72;;;1.52;;
80320;SDS011;69633;47.066;15.450;2023-05-16T00:44:21;5.70;;;1.90;;
80320;SDS011;69633;47.066;15.450;2023-05-16T00:46:48;4.00;;;1.52;;
80320;SDS011;69633;47.066;15.450;2023-05-16T00:49:14;6.50;;;1.88;;
80320;SDS011;69633;47.066;15.450;2023-05-16T00:51:41;2.70;;;1.63;;
80320;SDS011;69633;47.066;15.450;2023-05-16T00:54:08;4.15;;;2.10;;
80320;SDS011;69633;47.066;15.450;2023-05-16T00:56:35;3.53;;;1.80;;
80320;SDS011;69633;47.066;15.450;2023-05-16T00:59:03;4.35;;;1.70;;
80320;SDS011;69633;47.066;15.450;2023-05-16T01:01:30;3.22;;;1.40;;
80320;SDS011;69633;47.066;15.450;2023-05-16T01:03:57;3.20;;;1.80;;
80320;SDS011;69633;47.066;15.450;2023-05-16T01:06:25;4.22;;;1.88;;
80320;SDS011;69633;47.066;15.450;2023-05-16T01:08:52;5.20;;;1.95;;
80320;SDS011;69633;47.066;15.450;2023-05-16T01:28:49;5.57;;;2.60;;
80320;SDS011;69633;47.066;15.450;2023-05-16T01:31:16;4.93;;;2.25;;
80320;SDS011;69633;47.066;15.450;2023-05-16T01:33:43;4.38;;;1.92;;
80320;SDS011;69633;47.066;15.450;2023-05-16T01:44:49;6.72;;;2.40;;
80320;SDS011;69633;47.066;15.450;2023-05-16T01:47:34;8.45;;;2.30;;
80320;SDS011;69633;47.066;15.450;2023-05-16T01:50:15;3.50;;;1.90;;
80320;SDS011;69633;47.066;15.450;2023-05-16T01:55:46;5.15;;;1.92;;
80320;SDS011;69633;47.066;15.450;2023-05-16T01:58:18;3.63;;;1.80;;
80320;SDS011;69633;47.066;15.450;2023-05-16T02:01:00;5.25;;;2.10;;
80320;SDS011;69633;47.066;15.450;2023-05-16T02:05:57;6.05;;;2.20;;
80320;SDS011;69633;47.066;15.450;2023-05-16T02:08:24;3.47;;;1.95;;
80320;SDS011;69633;47.066;15.450;2023-05-16T02:10:55;5.50;;;2.20;;
80320;SDS011;69633;47.066;15.450;2023-05-16T02:13:21;4.22;;;2.17;;
80320;SDS011;69633;47.066;15.450;2023-05-16T02:15:49;4.13;;;1.95;;
80320;SDS011;69633;47.066;15.450;2023-05-16T02:18:18;3.63;;;1.77;;
80320;SDS011;69633;47.066;15.450;2023-05-16T02:20:45;3.38;;;2.10;;
80320;SDS011;69633;47.066;15.450;2023-05-16T02:23:12;3.22;;;1.75;;
80320;SDS011;69633;47.066;15.450;2023-05-16T02:25:39;3.50;;;1.85;;
80320;SDS011;69633;47.066;15.450;2023-05-16T02:28:06;5.07;;;2.10;;
80320;SDS011;69633;47.066;15.450;2023-05-16T02:30:33;5.15;;;2.30;;
80320;SDS011;69633;47.066;15.450;2023-05-16T02:33:00;5.10;;;3.08;;
80320;SDS011;69633;47.066;15.450;2023-05-16T02:35:27;5.93;;;2.72;;
80320;SDS011;69633;47.066;15.450;2023-05-16T02:37:53;6.63;;;2.15;;
80320;SDS011;69633;47.066;15.450;2023-05-16T02:40:23;4.30;;;2.25;;
80320;SDS011;69633;47.066;15.450;2023-05-16T02:42:51;4.53;;;2.53;;
80320;SDS011;69633;47.066;15.450;2023-05-16T02:45:23;4.10;;;1.90;;
80320;SDS011;69633;47.066;15.450;2023-05-16T02:47:52;5.20;;;2.45;;
80320;SDS011;69633;47.066;15.450;2023-05-16T02:50:18;4.15;;;2.25;;
80320;SDS011;69633;47.066;15.450;2023-05-16T02:52:45;6.50;;;2.60;;
80320;SDS011;69633;47.066;15.450;2023-05-16T02:55:13;6.70;;;2.35;;
80320;SDS011;69633;47.066;15.450;2023-05-16T02:57:41;3.90;;;1.95;;
80320;SDS011;69633;47.066;15.450;2023-05-16T03:00:08;4.18;;;2.40;;
80320;SDS011;69633;47.066;15.450;2023-05-16T03:02:56;3.80;;;2.78;;
80320;SDS011;69633;47.066;15.450;2023-05-16T03:05:22;6.18;;;2.30;;
80320;SDS011;69633;47.066;15.450;2023-05-16T03:07:48;5.85;;;3.22;;
80320;SDS011;69633;47.066;15.450;2023-05-16T03:10:14;4.85;;;2.17;;
80320;SDS011;69633;47.066;15.450;2023-05-16T03:12:42;5.32;;;2.33;;
80320;SDS011;69633;47.066;15.450;2023-05-16T03:15:09;7.18;;;2.40;;
80320;SDS011;69633;47.066;15.450;2023-05-16T03:17:36;3.95;;;2.35;;
80320;SDS011;69633;47.066;15.450;2023-05-16T03:20:03;6.10;;;2.60;;
80320;SDS011;69633;47.066;15.450;2023-05-16T03:22:29;3.65;;;2.03;;
80320;SDS011;69633;47.066;15.450;2023-05-16T03:24:56;5.60;;;2.92;;
80320;SDS011;69633;47.066;15.450;2023-05-16T03:27:22;5.22;;;2.35;;
80320;SDS011;69633;47.066;15.450;2023-05-16T03:29:50;3.60;;;1.92;;
80320;SDS011;69633;47.066;15.450;2023-05-16T03:32:16;5.20;;;2.10;;
80320;SDS011;69633;47.066;15.450;2023-05-16T03:34:42;4.13;;;2.30;;
80320;SDS011;69633;47.066;15.450;2023-05-16T03:37:08;6.05;;;2.70;;
80320;SDS011;69633;47.066;15.450;2023-05-16T03:39:36;4.90;;;2.65;;
80320;SDS011;69633;47.066;15.450;2023-05-16T03:42:01;4.03;;;2.22;;
80320;SDS011;69633;47.066;15.450;2023-05-16T03:44:28;4.38;;;2.50;;
80320;SDS011;69633;47.066;15.450;2023-05-16T03:46:54;6.53;;;2.67;;
80320;SDS011;69633;47.066;15.450;2023-05-16T03:49:25;5.03;;;2.33;;
80320;SDS011;69633;47.066;15.450;2023-05-16T03:51:56;4.20;;;2.50;;
80320;SDS011;69633;47.066;15.450;2023-05-16T03:54:21;4.13;;;2.05;;
80320;SDS011;69633;47.066;15.450;2023-05-16T03:56:54;5.85;;;2.40;;
80320;SDS011;69633;47.066;15.450;2023-05-16T03:59:22;4.75;;;2.55;;
80320;SDS011;69633;47.066;15.450;2023-05-16T04:01:49;7.03;;;2.45;;
80320;SDS011;69633;47.066;15.450;2023-05-16T04:04:15;8.05;;;2.30;;
80320;SDS011;69633;47.066;15.450;2023-05-16T04:06:41;4.20;;;2.13;;
80320;SDS011;69633;47.066;15.450;2023-05-16T04:09:07;7.82;;;2.55;;
80320;SDS011;69633;47.066;15.450;2023-05-16T04:11:35;4.43;;;2.33;;
80320;SDS011;69633;47.066;15.450;2023-05-16T04:14:04;5.32;;;2.72;;
80320;SDS011;69633;47.066;15.450;2023-05-16T04:16:31;5.05;;;2.83;;
80320;SDS011;69633;47.066;15.450;2023-05-16T04:18:58;5.43;;;2.30;;
80320;SDS011;69633;47.066;15.450;2023-05-16T04:21:24;5.75;;;2.75;;
80320;SDS011;69633;47.066;15.450;2023-05-16T04:23:52;4.68;;;2.47;;
80320;SDS011;69633;47.066;15.450;2023-05-16T04:26:17;3.88;;;2.05;;
80320;SDS011;69633;47.066;15.450;2023-05-16T04:28:44;4.22;;;2.38;;
80320;SDS011;69633;47.066;15.450;2023-05-16T04:31:11;4.68;;;2.83;;
80320;SDS011;69633;47.066;15.450;2023-05-16T04:33:40;6.40;;;2.55;;
80320;SDS011;69633;47.066;15.450;2023-05-16T04:36:07;5.22;;;2.70;;
80320;SDS011;69633;47.066;15.450;2023-05-16T04:38:35;6.18;;;3.33;;
80320;SDS011;69633;47.066;15.450;2023-05-16T04:41:02;7.85;;;3.10;;
80320;SDS011;69633;47.066;15.450;2023-05-16T04:43:28;8.77;;;2.92;;
80320;SDS011;69633;47.066;15.450;2023-05-16T04:45:54;6.13;;;2.90;;
80320;SDS011;69633;47.066;15.450;2023-05-16T04:48:24;5.22;;;2.50;;
80320;SDS011;69633;47.066;15.450;2023-05-16T04:50:51;6.45;;;3.10;;
80320;SDS011;69633;47.066;15.450;2023-05-16T04:53:17;5.47;;;2.70;;
80320;SDS011;69633;47.066;15.450;2023-05-16T04:55:44;7.88;;;2.67;;
80320;SDS011;69633;47.066;15.450;2023-05-16T04:58:10;7.13;;;2.53;;
80320;SDS011;69633;47.066;15.450;2023-05-16T05:00:37;4.57;;;2.40;;
80320;SDS011;69633;47.066;15.450;2023-05-16T05:03:05;3.80;;;2.30;;
80320;SDS011;69633;47.066;15.450;2023-05-16T05:05:33;4.63;;;2.38;;
80320;SDS011;69633;47.066;15.450;2023-05-16T05:08:00;4.10;;;2.15;;
80320;SDS011;69633;47.066;15.450;2023-05-16T05:10:28;8.52;;;2.50;;
80320;SDS011;69633;47.066;15.450;2023-05-16T05:12:55;5.25;;;2.40;;
80320;SDS011;69633;47.066;15.450;2023-05-16T05:15:23;4.70;;;2.88;;
80320;SDS011;69633;47.066;15.450;2023-05-16T05:17:50;6.35;;;2.30;;
80320;SDS011;69633;47.066;15.450;2023-05-16T05:20:15;5.20;;;2.10;;
80320;SDS011;69633;47.066;15.450;2023-05-16T05:22:42;3.90;;;2.25;;
80320;SDS011;69633;47.066;15.450;2023-05-16T05:25:09;4.35;;;2.20;;
80320;SDS011;69633;47.066;15.450;2023-05-16T05:27:36;4.07;;;2.30;;
80320;SDS011;69633;47.066;15.450;2023-05-16T05:30:02;6.55;;;2.50;;
80320;SDS011;69633;47.066;15.450;2023-05-16T05:32:31;3.95;;;2.15;;
80320;SDS011;69633;47.066;15.450;2023-05-16T05:34:58;4.78;;;2.38;;
80320;SDS011;69633;47.066;15.450;2023-05-16T05:37:25;4.32;;;2.35;;
80320;SDS011;69633;47.066;15.450;2023-05-16T05:39:52;4.13;;;2.17;;
80320;SDS011;69633;47.066;15.450;2023-05-16T05:42:20;4.85;;;2.47;;
80320;SDS011;69633;47.066;15.450;2023-05-16T05:44:45;7.32;;;2.80;;
80320;SDS011;69633;47.066;15.450;2023-05-16T05:47:12;5.93;;;2.58;;
80320;SDS011;69633;47.066;15.450;2023-05-16T05:49:39;5.05;;;3.00;;
80320;SDS011;69633;47.066;15.450;2023-05-16T05:52:06;7.10;;;2.90;;
80320;SDS011;69633;47.066;15.450;2023-05-16T05:54:32;6.53;;;3.67;;
80320;SDS011;69633;47.066;15.450;2023-05-16T05:56:58;5.55;;;2.90;;
80320;SDS011;69633;47.066;15.450;2023-05-16T05:59:26;4.88;;;2.67;;
80320;SDS011;69633;47.066;15.450;2023-05-16T06:01:52;5.22;;;2.88;;
80320;SDS011;69633;47.066;15.450;2023-05-16T06:04:20;6.00;;;2.95;;
80320;SDS011;69633;47.066;15.450;2023-05-16T06:06:47;6.97;;;2.88;;
80320;SDS011;69633;47.066;15.450;2023-05-16T06:09:14;6.30;;;3.13;;
80320;SDS011;69633;47.066;15.450;2023-05-16T06:11:41;6.72;;;3.28;;
80320;SDS011;69633;47.066;15.450;2023-05-16T06:14:22;8.13;;;3.42;;
80320;SDS011;69633;47.066;15.450;2023-05-16T06:16:50;6.85;;;5.07;;
80320;SDS011;69633;47.066;15.450;2023-05-16T06:19:19;6.00;;;2.72;;
80320;SDS011;69633;47.066;15.450;2023-05-16T06:21:53;6.93;;;3.50;;
80320;SDS011;69633;47.066;15.450;2023-05-16T06:24:26;6.30;;;3.00;;
80320;SDS011;69633;47.066;15.450;2023-05-16T06:27:12;7.55;;;3.05;;
80320;SDS011;69633;47.066;15.450;2023-05-16T06:29:43;5.45;;;3.03;;
80320;SDS011;69633;47.066;15.450;2023-05-16T06:32:14;5.32;;;3.38;;
80320;SDS011;69633;47.066;15.450;2023-05-16T06:34:48;7.93;;;3.25;;
80320;SDS011;69633;47.066;15.450;2023-05-16T06:37:15;8.18;;;3.20;;
80320;SDS011;69633;47.066;15.450;2023-05-16T06:39:44;9.93;;;4.03;;
80320;SDS011;69633;47.066;15.450;2023-05-16T06:42:13;6.90;;;3.65;;
80320;SDS011;69633;47.066;15.450;2023-05-16T06:44:39;8.25;;;4.07;;
80320;SDS011;69633;47.066;15.450;2023-05-16T06:47:12;7.97;;;4.10;;
80320;SDS011;69633;47.066;15.450;2023-05-16T06:52:16;11.00;;;4.93;;
80320;SDS011;69633;47.066;15.450;2023-05-16T06:54:43;11.85;;;5.15;;
80320;SDS011;69633;47.066;15.450;2023-05-16T06:57:11;12.35;;;5.15;;
80320;SDS011;69633;47.066;15.450;2023-05-16T06:59:43;11.52;;;4.82;;
80320;SDS011;69633;47.066;15.450;2023-05-16T07:02:13;8.75;;;4.20;;
80320;SDS011;69633;47.066;15.450;2023-05-16T07:04:39;9.40;;;4.28;;
80320;SDS011;69633;47.066;15.450;2023-05-16T07:07:08;12.00;;;4.18;;
80320;SDS011;69633;47.066;15.450;2023-05-16T07:09:35;9.52;;;4.50;;
80320;SDS011;69633;47.066;15.450;2023-05-16T07:12:23;14.25;;;4.45;;
80320;SDS011;69633;47.066;15.450;2023-05-16T07:14:51;13.82;;;4.70;;
80320;SDS011;69633;47.066;15.450;2023-05-16T07:17:21;12.32;;;5.28;;
80320;SDS011;69633;47.066;15.450;2023-05-16T07:19:47;9.40;;;5.20;;
80320;SDS011;69633;47.066;15.450;2023-05-16T07:22:15;14.50;;;5.30;;
80320;SDS011;69633;47.066;15.450;2023-05-16T07:24:41;12.52;;;5.05;;
80320;SDS011;69633;47.066;15.450;2023-05-16T07:27:08;10.52;;;5.65;;
80320;SDS011;69633;47.066;15.450;2023-05-16T07:29:35;11.02;;;5.10;;
80320;SDS011;69633;47.066;15.450;2023-05-16T07:32:04;8.98;;;4.47;;
80320;SDS011;69633;47.066;15.450;2023-05-16T07:34:31;12.15;;;4.93;;
80320;SDS011;69633;47.066;15.450;2023-05-16T07:36:58;10.07;;;4.55;;
80320;SDS011;69633;47.066;15.450;2023-05-16T07:39:25;7.88;;;4.68;;
80320;SDS011;69633;47.066;15.450;2023-05-16T07:41:52;9.48;;;5.15;;
80320;SDS011;69633;47.066;15.450;2023-05-16T07:44:19;11.20;;;5.47;;
80320;SDS011;69633;47.066;15.450;2023-05-16T07:46:45;7.32;;;4.75;;
80320;SDS011;69633;47.066;15.450;2023-05-16T07:49:11;12.82;;;6.40;;
80320;SDS011;69633;47.066;15.450;2023-05-16T07:51:37;7.88;;;4.20;;
80320;SDS011;69633;47.066;15.450;2023-05-16T07:54:04;8.52;;;4.55;;
80320;SDS011;69633;47.066;15.450;2023-05-16T07:56:31;8.55;;;4.90;;
80320;SDS011;69633;47.066;15.450;2023-05-16T07:58:59;7.80;;;4.70;;
80320;SDS011;69633;47.066;15.450;2023-05-16T08:01:26;8.88;;;4.78;;
80320;SDS011;69633;47.066;15.450;2023-05-16T08:03:51;9.90;;;4.78;;
80320;SDS011;69633;47.066;15.450;2023-05-16T08:06:19;10.35;;;5.22;;
80320;SDS011;69633;47.066;15.450;2023-05-16T08:08:46;16.13;;;5.30;;
80320;SDS011;69633;47.066;15.450;2023-05-16T08:11:12;9.25;;;4.63;;
80320;SDS011;69633;47.066;15.450;2023-05-16T08:13:39;8.68;;;4.82;;
80320;SDS011;69633;47.066;15.450;2023-05-16T08:16:07;7.00;;;4.43;;
80320;SDS011;69633;47.066;15.450;2023-05-16T08:18:33;9.18;;;4.80;;
80320;SDS011;69633;47.066;15.450;2023-05-16T08:20:59;9.88;;;4.60;;
80320;SDS011;69633;47.066;15.450;2023-05-16T08:23:26;8.07;;;4.53;;
80320;SDS011;69633;47.066;15.450;2023-05-16T08:25:52;9.32;;;4.78;;
80320;SDS011;69633;47.066;15.450;2023-05-16T08:28:20;7.63;;;4.60;;
80320;SDS011;69633;47.066;15.450;2023-05-16T08:30:47;8.55;;;4.72;;
80320;SDS011;69633;47.066;15.450;2023-05-16T08:33:13;7.82;;;4.45;;
80320;SDS011;69633;47.066;15.450;2023-05-16T08:35:42;6.47;;;4.22;;
80320;SDS011;69633;47.066;15.450;2023-05-16T08:38:09;8.70;;;5.05;;
80320;SDS011;69633;47.066;15.450;2023-05-16T08:40:37;9.80;;;4.85;;
80320;SDS011;69633;47.066;15.450;2023-05-16T08:43:05;8.90;;;5.00;;
80320;SDS011;69633;47.066;15.450;2023-05-16T08:45:39;11.00;;;4.97;;
80320;SDS011;69633;47.066;15.450;2023-05-16T08:48:08;7.18;;;4.30;;
80320;SDS011;69633;47.066;15.450;2023-05-16T08:50:36;8.50;;;5.38;;
80320;SDS011;69633;47.066;15.450;2023-05-16T08:53:03;8.75;;;5.05;;
80320;SDS011;69633;47.066;15.450;2023-05-16T08:55:34;8.07;;;5.05;;
80320;SDS011;69633;47.066;15.450;2023-05-16T08:58:02;9.50;;;5.35;;
80320;SDS011;69633;47.066;15.450;2023-05-16T09:00:29;9.80;;;5.15;;
80320;SDS011;69633;47.066;15.450;2023-05-16T09:02:57;6.80;;;4.30;;
80320;SDS011;69633;47.066;15.450;2023-05-16T09:05:25;10.50;;;4.88;;
80320;SDS011;69633;47.066;15.450;2023-05-16T09:07:53;7.78;;;4.68;;
80320;SDS011;69633;47.066;15.450;2023-05-16T09:10:19;9.68;;;4.45;;
80320;SDS011;69633;47.066;15.450;2023-05-16T09:12:46;12.50;;;4.70;;
80320;SDS011;69633;47.066;15.450;2023-05-16T09:15:12;8.90;;;4.60;;
80320;SDS011;69633;47.066;15.450;2023-05-16T09:17:44;12.38;;;6.93;;
80320;SDS011;69633;47.066;15.450;2023-05-16T09:20:23;9.57;;;5.05;;
80320;SDS011;69633;47.066;15.450;2023-05-16T09:22:58;8.80;;;4.95;;
80320;SDS011;69633;47.066;15.450;2023-05-16T09:25:35;11.55;;;4.55;;
80320;SDS011;69633;47.066;15.450;2023-05-16T09:28:01;9.52;;;4.45;;
80320;SDS011;69633;47.066;15.450;2023-05-16T09:30:28;6.78;;;4.13;;
80320;SDS011;69633;47.066;15.450;2023-05-16T09:33:00;7.30;;;4.43;;
80320;SDS011;69633;47.066;15.450;2023-05-16T09:35:26;8.90;;;4.57;;
80320;SDS011;69633;47.066;15.450;2023-05-16T09:37:55;7.43;;;4.47;;
80320;SDS011;69633;47.066;15.450;2023-05-16T09:40:25;7.97;;;4.20;;
80320;SDS011;69633;47.066;15.450;2023-05-16T09:43:13;7.10;;;4.13;;
80320;SDS011;69633;47.066;15.450;2023-05-16T09:45:42;11.02;;;4.10;;
80320;SDS011;69633;47.066;15.450;2023-05-16T09:48:13;8.63;;;4.13;;
80320;SDS011;69633;47.066;15.450;2023-05-16T09:50:47;7.57;;;3.90;;
80320;SDS011;69633;47.066;15.450;2023-05-16T09:53:23;6.55;;;4.07;;
80320;SDS011;69633;47.066;15.450;2023-05-16T09:58:43;8.27;;;4.32;;
80320;SDS011;69633;47.066;15.450;2023-05-16T10:01:17;7.82;;;4.53;;
80320;SDS011;69633;47.066;15.450;2023-05-16T10:03:42;6.63;;;4.05;;
80320;SDS011;69633;47.066;15.450;2023-05-16T10:06:10;8.30;;;4.35;;
80320;SDS011;69633;47.066;15.450;2023-05-16T10:08:39;8.10;;;4.70;;
80320;SDS011;69633;47.066;15.450;2023-05-16T10:11:12;9.50;;;5.05;;
80320;SDS011;69633;47.066;15.450;2023-05-16T10:13:40;6.82;;;4.30;;
80320;SDS011;69633;47.066;15.450;2023-05-16T10:16:10;7.15;;;4.10;;
80320;SDS011;69633;47.066;15.450;2023-05-16T10:18:38;7.53;;;4.20;;
80320;SDS011;69633;47.066;15.450;2023-05-16T10:21:08;8.85;;;4.85;;
80320;SDS011;69633;47.066;15.450;2023-05-16T10:23:42;9.65;;;4.63;;
80320;SDS011;69633;47.066;15.450;2023-05-16T10:26:12;7.22;;;4.00;;
80320;SDS011;69633;47.066;15.450;2023-05-16T10:28:41;7.53;;;4.20;;
80320;SDS011;69633;47.066;15.450;2023-05-16T10:31:09;6.72;;;4.15;;
80320;SDS011;69633;47.066;15.450;2023-05-16T10:33:40;10.57;;;4.57;;
80320;SDS011;69633;47.066;15.450;2023-05-16T10:36:14;10.40;;;5.05;;
80320;SDS011;69633;47.066;15.450;2023-05-16T10:38:45;9.23;;;4.75;;
80320;SDS011;69633;47.066;15.450;2023-05-16T10:41:15;7.47;;;4.35;;
80320;SDS011;69633;47.066;15.450;2023-05-16T10:43:43;7.47;;;4.53;;
80320;SDS011;69633;47.066;15.450;2023-05-16T10:46:12;7.90;;;4.63;;
80320;SDS011;69633;47.066;15.450;2023-05-16T10:48:39;9.95;;;4.70;;
80320;SDS011;69633;47.066;15.450;2023-05-16T10:54:03;7.18;;;4.20;;
80320;SDS011;69633;47.066;15.450;2023-05-16T10:56:33;13.80;;;5.10;;
80320;SDS011;69633;47.066;15.450;2023-05-16T10:59:01;6.72;;;4.13;;
80320;SDS011;69633;47.066;15.450;2023-05-16T11:01:34;6.18;;;4.38;;
80320;SDS011;69633;47.066;15.450;2023-05-16T11:04:02;6.00;;;3.90;;
80320;SDS011;69633;47.066;15.450;2023-05-16T11:12:11;8.63;;;4.00;;
80320;SDS011;69633;47.066;15.450;2023-05-16T11:14:39;7.82;;;4.80;;
80320;SDS011;69633;47.066;15.450;2023-05-16T11:17:13;11.02;;;4.88;;
80320;SDS011;69633;47.066;15.450;2023-05-16T11:22:50;6.90;;;3.80;;
80320;SDS011;69633;47.066;15.450;2023-05-16T11:28:07;7.35;;;3.67;;
80320;SDS011;69633;47.066;15.450;2023-05-16T11:30:36;6.95;;;3.47;;
80320;SDS011;69633;47.066;15.450;2023-05-16T11:33:08;6.85;;;3.42;;
80320;SDS011;69633;47.066;15.450;2023-05-16T11:35:35;6.35;;;3.42;;
80320;SDS011;69633;47.066;15.450;2023-05-16T11:38:03;6.35;;;3.50;;
80320;SDS011;69633;47.066;15.450;2023-05-16T11:40:29;11.90;;;3.65;;
80320;SDS011;69633;47.066;15.450;2023-05-16T11:43:02;7.45;;;3.58;;
80320;SDS011;69633;47.066;15.450;2023-05-16T11:45:29;7.47;;;3.45;;
80320;SDS011;69633;47.066;15.450;2023-05-16T11:47:59;5.45;;;3.78;;
80320;SDS011;69633;47.066;15.450;2023-05-16T11:50:37;5.53;;;3.38;;
80320;SDS011;69633;47.066;15.450;2023-05-16T11:53:03;4.60;;;3.15;;
80320;SDS011;69633;47.066;15.450;2023-05-16T11:55:31;8.63;;;3.75;;
80320;SDS011;69633;47.066;15.450;2023-05-16T11:58:00;4.95;;;3.13;;
80320;SDS011;69633;47.066;15.450;2023-05-16T12:00:28;7.82;;;3.50;;
80320;SDS011;69633;47.066;15.450;2023-05-16T12:03:00;4.40;;;2.65;;
80320;SDS011;69633;47.066;15.450;2023-05-16T12:05:29;4.85;;;2.72;;
80320;SDS011;69633;47.066;15.450;2023-05-16T12:07:58;7.15;;;3.42;;
80320;SDS011;69633;47.066;15.450;2023-05-16T12:10:25;4.50;;;3.05;;
80320;SDS011;69633;47.066;15.450;2023-05-16T12:12:52;4.38;;;2.35;;
80320;SDS011;69633;47.066;15.450;2023-05-16T12:15:22;6.32;;;3.17;;
80320;SDS011;69633;47.066;15.450;2023-05-16T12:17:50;4.53;;;2.40;;
80320;SDS011;69633;47.066;15.450;2023-05-16T12:20:17;4.97;;;2.60;;
80320;SDS011;69633;47.066;15.450;2023-05-16T12:22:45;5.65;;;2.55;;
80320;SDS011;69633;47.066;15.450;2023-05-16T12:26:12;4.72;;;2.80;;
80320;SDS011;69633;47.066;15.450;2023-05-16T12:28:22;4.05;;;2.10;;
80320;SDS011;69633;47.066;15.450;2023-05-16T12:30:48;3.50;;;2.28;;
80320;SDS011;69633;47.066;15.450;2023-05-16T12:33:16;4.53;;;2.45;;
80320;SDS011;69633;47.066;15.450;2023-05-16T12:35:43;3.95;;;2.35;;
80320;SDS011;69633;47.066;15.450;2023-05-16T12:38:12;3.28;;;2.15;;
80320;SDS011;69633;47.066;15.450;2023-05-16T12:40:42;3.58;;;2.30;;
80320;SDS011;69633;47.066;15.450;2023-05-16T12:45:55;3.00;;;2.20;;
80320;SDS011;69633;47.066;15.450;2023-05-16T12:48:30;4.63;;;2.33;;
80320;SDS011;69633;47.066;15.450;2023-05-16T12:51:09;2.95;;;2.15;;
80320;SDS011;69633;47.066;15.450;2023-05-16T12:53:45;3.22;;;2.03;;
80320;SDS011;69633;47.066;15.450;2023-05-16T12:56:16;4.43;;;2.40;;
80320;SDS011;69633;47.066;15.450;2023-05-16T12:58:43;7.13;;;2.20;;
80320;SDS011;69633;47.066;15.450;2023-05-16T13:01:10;5.63;;;2.00;;
80320;SDS011;69633;47.066;15.450;2023-05-16T13:03:37;7.38;;;2.08;;
80320;SDS011;69633;47.066;15.450;2023-05-16T13:06:03;3.40;;;2.25;;
80320;SDS011;69633;47.066;15.450;2023-05-16T13:08:30;3.42;;;1.80;;
80320;SDS011;69633;47.066;15.450;2023-05-16T13:10:56;3.63;;;2.28;;
80320;SDS011;69633;47.066;15.450;2023-05-16T13:13:28;7.55;;;2.10;;
80320;SDS011;69633;47.066;15.450;2023-05-16T13:15:54;4.43;;;1.90;;
80320;SDS011;69633;47.066;15.450;2023-05-16T13:18:20;3.15;;;1.92;;
80320;SDS011;69633;47.066;15.450;2023-05-16T13:20:47;3.50;;;1.92;;
80320;SDS011;69633;47.066;15.450;2023-05-16T13:23:14;2.85;;;1.88;;
80320;SDS011;69633;47.066;15.450;2023-05-16T13:25:41;3.75;;;2.00;;
80320;SDS011;69633;47.066;15.450;2023-05-16T13:28:07;4.32;;;1.88;;
80320;SDS011;69633;47.066;15.450;2023-05-16T13:30:33;3.55;;;2.10;;
80320;SDS011;69633;47.066;15.450;2023-05-16T13:33:00;7.70;;;2.05;;
80320;SDS011;69633;47.066;15.450;2023-05-16T13:35:25;3.40;;;2.00;;
80320;SDS011;69633;47.066;15.450;2023-05-16T13:37:52;3.38;;;1.83;;
80320;SDS011;69633;47.066;15.450;2023-05-16T13:40:17;2.40;;;1.70;;
80320;SDS011;69633;47.066;15.450;2023-05-16T13:42:46;3.47;;;1.95;;
80320;SDS011;69633;47.066;15.450;2023-05-16T13:45:12;4.00;;;1.75;;
80320;SDS011;69633;47.066;15.450;2023-05-16T13:47:47;2.80;;;1.70;;
80320;SDS011;69633;47.066;15.450;2023-05-16T13:50:14;3.28;;;2.05;;
80320;SDS011;69633;47.066;15.450;2023-05-16T13:52:39;8.65;;;2.00;;
80320;SDS011;69633;47.066;15.450;2023-05-16T13:55:06;4.18;;;1.83;;
80320;SDS011;69633;47.066;15.450;2023-05-16T13:57:34;6.80;;;1.85;;
80320;SDS011;69633;47.066;15.450;2023-05-16T14:00:02;19.52;;;2.15;;
80320;SDS011;69633;47.066;15.450;2023-05-16T14:02:39;3.03;;;1.83;;
80320;SDS011;69633;47.066;15.450;2023-05-16T14:05:07;5.75;;;2.03;;
80320;SDS011;69633;47.066;15.450;2023-05-16T14:07:34;3.25;;;1.77;;
80320;SDS011;69633;47.066;15.450;2023-05-16T14:10:01;3.75;;;2.45;;
80320;SDS011;69633;47.066;15.450;2023-05-16T14:12:30;3.33;;;1.77;;
80320;SDS011;69633;47.066;15.450;2023-05-16T14:14:57;4.55;;;2.20;;
80320;SDS011;69633;47.066;15.450;2023-05-16T14:17:24;2.75;;;1.67;;
80320;SDS011;69633;47.066;15.450;2023-05-16T14:19:53;4.78;;;2.03;;
80320;SDS011;69633;47.066;15.450;2023-05-16T14:22:19;3.83;;;1.80;;
80320;SDS011;69633;47.066;15.450;2023-05-16T14:24:45;3.55;;;1.90;;
80320;SDS011;69633;47.066;15.450;2023-05-16T14:27:12;2.65;;;1.83;;
80320;SDS011;69633;47.066;15.450;2023-05-16T14:29:39;4.65;;;1.92;;
80320;SDS011;69633;47.066;15.450;2023-05-16T14:32:06;3.38;;;2.28;;
80320;SDS011;69633;47.066;15.450;2023-05-16T14:34:36;21.13;;;2.20;;
80320;SDS011;69633;47.066;15.450;2023-05-16T14:37:02;4.68;;;1.85;;
80320;SDS011;69633;47.066;15.450;2023-05-16T14:39:28;2.92;;;1.95;;
80320;SDS011;69633;47.066;15.450;2023-05-16T14:41:56;3.90;;;2.05;;
80320;SDS011;69633;47.066;15.450;2023-05-16T14:44:23;4.03;;;2.30;;
80320;SDS011;69633;47.066;15.450;2023-05-16T14:46:50;5.63;;;2.22;;
80320;SDS011;69633;47.066;15.450;2023-05-16T14:49:17;4.28;;;2.47;;
80320;SDS011;69633;47.066;15.450;2023-05-16T14:51:42;4.90;;;2.67;;
80320;SDS011;69633;47.066;15.450;2023-05-16T14:54:15;3.20;;;2.00;;
80320;SDS011;69633;47.066;15.450;2023-05-16T14:56:43;5.93;;;2.65;;
80320;SDS011;69633;47.066;15.450;2023-05-16T15:01:39;3.80;;;2.50;;
80320;SDS011;69633;47.066;15.450;2023-05-16T15:04:08;4.43;;;2.47;;
80320;SDS011;69633;47.066;15.450;2023-05-16T15:06:35;5.55;;;2.70;;
80320;SDS011;69633;47.066;15.450;2023-05-16T15:09:01;36.58;;;16.55;;
80320;SDS011;69633;47.066;15.450;2023-05-16T15:11:30;4.03;;;2.40;;
80320;SDS011;69633;47.066;15.450;2023-05-16T15:13:58;3.08;;;2.40;;
80320;SDS011;69633;47.066;15.450;2023-05-16T15:16:29;3.95;;;2.65;;
80320;SDS011;69633;47.066;15.450;2023-05-16T15:18:56;5.00;;;2.45;;
80320;SDS011;69633;47.066;15.450;2023-05-16T15:21:23;5.22;;;2.50;;
80320;SDS011;69633;47.066;15.450;2023-05-16T15:23:53;5.88;;;2.80;;
80320;SDS011;69633;47.066;15.450;2023-05-16T15:26:22;4.07;;;2.65;;
80320;SDS011;69633;47.066;15.450;2023-05-16T15:28:50;4.13;;;2.75;;
80320;SDS011;69633;47.066;15.450;2023-05-16T15:31:17;3.83;;;2.15;;
80320;SDS011;69633;47.066;15.450;2023-05-16T15:33:42;4.22;;;2.60;;
80320;SDS011;69633;47.066;15.450;2023-05-16T15:36:10;3.55;;;2.33;;